EST,Max TemperatureF,Mean TemperatureF,Min TemperatureF,Max Dew PointF,MeanDew PointF,Min DewpointF,Max Humidity, Mean Humidity, Min Humidity, Max Sea Level PressureIn, Mean Sea Level PressureIn, Min Sea Level PressureIn, Max VisibilityMiles, Mean VisibilityMiles, Min VisibilityMiles, Max Wind SpeedMPH, Mean Wind SpeedMPH, Max Gust SpeedMPH,PrecipitationIn, CloudCover, Events, WindDirDegrees
2013-11-1,60,53,46,59,44,39,94,80,67,29.67,29.50,29.16,10,10,10,30,15,41,0.00,8,Rain,248
2013-11-2,48,44,39,45,41,34,100,84,70,30.08,29.80,29.65,10,9,3,14,7,18,0.00,8,Rain,308
2013-11-3,48,39,30,36,32,28,100,78,53,30.42,30.30,30.08,10,10,4,9,3,,0.00,3,,76
2013-11-4,48,44,39,36,32,25,81,63,43,30.46,30.39,30.30,10,10,10,14,9,18,0.00,0,,128
2013-11-5,55,48,41,48,43,36,94,78,63,30.36,30.30,30.18,10,10,7,10,5,,0.00,4,,181
2013-11-6,60,52,44,54,46,39,94,77,58,30.17,29.96,29.83,10,10,7,24,12,36,0.00,7,Rain,215
2013-11-7,46,40,35,41,31,25,93,68,46,30.13,30.08,29.97,10,10,5,22,11,32,0.00,6,Rain,292
2013-11-8,44,38,33,34,28,21,87,70,39,30.28,30.21,30.12,10,10,10,10,7,16,0.00,4,,250
2013-11-9,57,47,37,39,35,28,87,59,44,30.17,29.94,29.81,10,10,10,26,12,38,0.00,4,,224
2013-11-10,48,40,32,37,29,25,87,59,46,30.26,30.12,29.91,10,10,10,21,14,30,0.00,5,,280
2013-11-11,46,38,28,39,32,21,100,78,61,30.29,30.13,30.02,10,8,1,20,8,28,0.00,7,Rain-Snow,265
2013-11-12,35,29,23,23,19,16,80,68,48,30.53,30.46,30.30,10,10,10,16,11,22,0.00,3,,319
2013-11-13,37,28,19,25,19,16,93,68,45,30.53,30.40,30.18,10,10,10,23,8,31,0.00,0,,237
2013-11-14,51,40,30,21,20,16,69,46,24,30.19,30.09,30.01,10,10,10,22,16,31,0.00,0,,224
2013-11-15,51,45,39,30,25,19,65,47,35,30.07,30.04,30.01,10,10,10,17,9,26,0.00,2,Rain,213
2013-11-16,57,44,30,52,42,28,100,82,61,30.09,29.99,29.81,10,10,7,17,6,25,0.00,6,,171
2013-11-17,66,57,48,59,53,41,94,82,63,29.81,29.56,29.29,10,10,2,36,16,56,0.00,7,Rain,198
2013-11-18,48,42,35,39,31,21,81,67,56,30.12,29.83,29.54,10,10,10,29,21,44,0.00,8,,273
2013-11-19,41,34,26,25,23,19,93,63,42,30.39,30.29,30.13,10,10,7,14,7,21,0.00,3,,331
2013-11-20,44,35,26,30,27,21,100,70,39,30.41,30.33,30.22,10,10,10,16,5,22,0.00,2,,128
2013-11-21,46,42,39,43,38,28,93,83,61,30.28,30.23,30.16,10,7,2,13,5,18,0.00,8,Rain,166
2013-11-22,46,38,28,46,38,25,100,88,70,30.35,30.21,30.12,10,6,1,20,6,29,0.00,6,Rain,297
2013-11-23,32,24,17,27,18,7,100,73,43,30.50,30.35,30.26,10,9,1,23,9,31,0.00,3,Snow,300
2013-11-24,26,19,12,16,10,7,86,68,46,30.58,30.52,30.43,10,10,10,16,9,22,0.00,2,,282
2013-11-25,32,26,19,25,15,10,86,63,44,30.42,30.22,30.09,10,10,5,17,11,25,0.00,4,Snow,221
2013-11-26,35,32,30,28,26,21,86,77,65,30.11,30.01,29.90,10,10,7,14,8,22,0.00,7,,238
2013-11-27,30,24,19,27,14,9,86,63,47,30.18,29.99,29.88,10,10,5,22,13,29,0.00,5,Snow,319
2013-11-28,28,22,17,21,16,12,93,71,51,30.40,30.28,30.18,10,10,2,12,5,16,0.00,6,Snow,234
2013-11-29,33,25,17,25,19,16,93,76,48,30.63,30.56,30.41,10,10,10,12,1,16,0.00,2,,126
2013-11-30,44,36,28,27,24,21,80,64,46,30.54,30.29,30.09,10,10,10,14,8,17,0.00,1,,181